Time,TemperatureF,DewpointF,PressureIn,WindDirection,WindDirectionDegrees,WindSpeedMPH,WindSpeedGustMPH,Humidity,HourlyPrecipIn,Conditions,Clouds,dailyrainin,SoftwareType,DateUTC
2013-03-14 00:00:00,37.5,23.7,30.29,North,355,0.0,0.0,57,0.00,,CLR,0.00,VWS V14.01,2013-03-14 05:00:00,
2013-03-14 00:02:00,37.3,23.5,30.29,North,355,0.0,0.0,57,0.00,,CLR,0.00,VWS V14.01,2013-03-14 05:02:00,
2013-03-14 00:07:00,37.1,23.3,30.29,North,355,0.0,0.0,57,0.00,,CLR,0.00,VWS V14.01,2013-03-14 05:07:00,
2013-03-14 00:12:00,37.0,23.6,30.29,North,355,0.0,0.0,58,0.00,,CLR,0.00,VWS V14.01,2013-03-14 05:12:00,
2013-03-14 00:18:00,36.8,23.4,30.29,North,355,0.0,0.0,58,0.00,,CLR,0.00,VWS V14.01,2013-03-14 05:18:00,
2013-03-14 00:23:00,36.6,23.6,30.29,North,355,0.0,0.0,59,0.00,,CLR,0.00,VWS V14.01,2013-03-14 05:23:00,
2013-03-14 00:28:00,36.3,23.4,30.29,North,355,0.0,0.0,59,0.00,,CLR,0.00,VWS V14.01,2013-03-14 05:28:00,
2013-03-14 00:30:00,36.2,23.3,30.29,North,355,0.0,0.0,59,0.00,,CLR,0.00,VWS V14.01,2013-03-14 05:30:00,
2013-03-14 00:33:00,35.9,23.0,30.28,North,355,0.0,0.0,59,0.00,,CLR,0.00,VWS V14.01,2013-03-14 05:33:00,
2013-03-14 00:38:00,35.7,24.0,30.28,North,355,0.0,0.0,62,0.00,,CLR,0.00,VWS V14.01,2013-03-14 05:38:00,
2013-03-14 00:43:00,35.4,23.7,30.28,North,355,0.0,0.0,62,0.00,,CLR,0.00,VWS V14.01,2013-03-14 05:43:00,
2013-03-14 00:48:00,35.2,23.1,30.28,North,355,0.0,0.0,61,0.00,,CLR,0.00,VWS V14.01,2013-03-14 05:48:00,
2013-03-14 00:54:00,35.0,24.1,30.28,North,355,0.0,0.0,64,0.00,,CLR,0.00,VWS V14.01,2013-03-14 05:54:00,
2013-03-14 00:59:00,34.8,23.1,30.28,North,355,0.0,0.0,62,0.00,,CLR,0.00,VWS V14.01,2013-03-14 05:59:00,
2013-03-14 01:00:00,34.8,23.1,30.28,North,355,0.0,0.0,62,0.00,,CLR,0.00,VWS V14.01,2013-03-14 06:00:00,
2013-03-14 01:04:00,34.7,22.6,30.28,East,101,0.0,0.0,61,0.00,,CLR,0.00,VWS V14.01,2013-03-14 06:04:00,
2013-03-14 01:09:00,34.7,23.8,30.28,East,101,0.0,0.0,64,0.00,,CLR,0.00,VWS V14.01,2013-03-14 06:09:00,
2013-03-14 01:14:00,34.7,23.4,30.28,East,101,0.0,0.0,63,0.00,,CLR,0.00,VWS V14.01,2013-03-14 06:14:00,
2013-03-14 01:19:00,34.6,24.1,30.28,East,101,0.0,0.0,65,0.00,,CLR,0.00,VWS V14.01,2013-03-14 06:19:00,
2013-03-14 01:24:00,34.4,23.5,30.28,East,101,0.0,0.0,64,0.00,,CLR,0.00,VWS V14.01,2013-03-14 06:24:00,
2013-03-14 01:29:00,34.2,23.7,30.28,East,101,0.0,0.0,65,0.00,,CLR,0.00,VWS V14.01,2013-03-14 06:29:00,
2013-03-14 01:30:00,34.1,23.6,30.28,East,101,0.0,0.0,65,0.00,,CLR,0.00,VWS V14.01,2013-03-14 06:30:00,
2013-03-14 01:34:00,34.0,24.2,30.28,East,101,0.0,0.0,67,0.00,,CLR,0.00,VWS V14.01,2013-03-14 06:34:00,
2013-03-14 01:39:00,33.8,23.7,30.28,East,101,0.0,0.0,66,0.00,,CLR,0.00,VWS V14.01,2013-03-14 06:39:00,
2013-03-14 01:44:00,33.7,23.2,30.27,East,101,0.0,0.0,65,0.00,,CLR,0.00,VWS V14.01,2013-03-14 06:44:00,
2013-03-14 01:49:00,33.5,23.7,30.27,East,101,0.0,0.0,67,0.00,,CLR,0.00,VWS V14.01,2013-03-14 06:49:00,
2013-03-14 01:54:00,33.3,23.2,30.27,East,101,0.0,0.0,66,0.00,,CLR,0.00,VWS V14.01,2013-03-14 06:54:00,
2013-03-14 01:59:00,33.2,23.5,30.27,East,101,0.0,0.0,67,0.00,,CLR,0.00,VWS V14.01,2013-03-14 06:59:00,
2013-03-14 02:00:00,33.2,23.5,30.27,East,101,0.0,0.0,67,0.00,,CLR,0.00,VWS V14.01,2013-03-14 07:00:00,
2013-03-14 02:04:00,33.1,23.7,30.27,East,101,0.0,0.0,68,0.00,,CLR,0.00,VWS V14.01,2013-03-14 07:04:00,
2013-03-14 02:09:00,33.0,23.2,30.27,East,101,0.0,0.0,67,0.00,,CLR,0.00,VWS V14.01,2013-03-14 07:09:00,
2013-03-14 02:15:00,32.8,23.1,30.27,East,101,0.0,0.0,67,0.00,,CLR,0.00,VWS V14.01,2013-03-14 07:15:00,
2013-03-14 02:20:00,32.7,23.3,30.27,East,101,0.0,0.0,68,0.00,,CLR,0.00,VWS V14.01,2013-03-14 07:20:00,
2013-03-14 02:25:00,32.6,23.6,30.27,East,101,0.0,0.0,69,0.00,,CLR,0.00,VWS V14.01,2013-03-14 07:25:00,
2013-03-14 02:30:00,32.5,23.1,30.27,East,101,0.0,0.0,68,0.00,,CLR,0.00,VWS V14.01,2013-03-14 07:30:00,
2013-03-14 02:35:00,32.4,23.0,30.26,East,101,0.0,0.0,68,0.00,,CLR,0.00,VWS V14.01,2013-03-14 07:35:00,
2013-03-14 02:40:00,32.3,22.6,30.26,East,101,0.0,0.0,67,0.00,,CLR,0.00,VWS V14.01,2013-03-14 07:40:00,
2013-03-14 02:45:00,32.3,22.9,30.26,East,101,0.0,0.0,68,0.00,,CLR,0.00,VWS V14.01,2013-03-14 07:45:00,
2013-03-14 02:50:00,32.1,23.4,30.26,East,101,0.0,1.0,70,0.00,,CLR,0.00,VWS V14.01,2013-03-14 07:50:00,
2013-03-14 02:55:00,32.1,22.8,30.26,ESE,123,0.0,2.0,68,0.00,,CLR,0.00,VWS V14.01,2013-03-14 07:55:00,
2013-03-14 03:00:00,32.2,23.2,30.26,ESE,123,0.0,1.0,69,0.00,,CLR,0.00,VWS V14.01,2013-03-14 08:00:00,
2013-03-14 03:05:00,32.3,23.3,30.26,ESE,123,0.0,1.0,69,0.00,,CLR,0.00,VWS V14.01,2013-03-14 08:05:00,
2013-03-14 03:10:00,32.5,23.1,30.26,ESE,123,0.0,1.0,68,0.00,,CLR,0.00,VWS V14.01,2013-03-14 08:10:00,
2013-03-14 03:15:00,32.7,23.0,30.26,ESE,123,0.0,1.0,67,0.00,,CLR,0.00,VWS V14.01,2013-03-14 08:15:00,
2013-03-14 03:20:00,33.0,22.9,30.26,ESE,123,0.0,1.0,66,0.00,,CLR,0.00,VWS V14.01,2013-03-14 08:20:00,
2013-03-14 03:25:00,33.1,23.0,30.26,ESE,123,0.0,1.0,66,0.00,,CLR,0.00,VWS V14.01,2013-03-14 08:25:00,
2013-03-14 03:30:00,33.2,23.1,30.26,ESE,123,0.0,0.0,66,0.00,,CLR,0.00,VWS V14.01,2013-03-14 08:30:00,
2013-03-14 03:35:00,33.1,23.0,30.26,ESE,123,0.0,0.0,66,0.00,,CLR,0.00,VWS V14.01,2013-03-14 08:35:00,
2013-03-14 03:40:00,32.9,23.2,30.26,ESE,123,0.0,0.0,67,0.00,,CLR,0.00,VWS V14.01,2013-03-14 08:40:00,
2013-03-14 03:45:00,32.8,23.1,30.25,ESE,123,0.0,0.0,67,0.00,,CLR,0.00,VWS V14.01,2013-03-14 08:45:00,
2013-03-14 03:50:00,32.8,23.4,30.25,ESE,123,0.0,0.0,68,0.00,,CLR,0.00,VWS V14.01,2013-03-14 08:50:00,
2013-03-14 03:55:00,32.5,23.5,30.25,ESE,123,0.0,1.0,69,0.00,,CLR,0.00,VWS V14.01,2013-03-14 08:55:00,
2013-03-14 04:00:00,32.3,23.3,30.25,ESE,123,0.0,0.0,69,0.00,,CLR,0.00,VWS V14.01,2013-03-14 09:00:00,
2013-03-14 04:06:00,32.5,23.8,30.25,ESE,123,0.0,1.0,70,0.00,,CLR,0.00,VWS V14.01,2013-03-14 09:06:00,
2013-03-14 04:11:00,32.6,23.9,30.25,ESE,123,0.0,1.0,70,0.00,,CLR,0.00,VWS V14.01,2013-03-14 09:11:00,
2013-03-14 04:16:00,32.6,23.9,30.25,ESE,123,0.0,1.0,70,0.00,,CLR,0.00,VWS V14.01,2013-03-14 09:16:00,
2013-03-14 04:21:00,32.7,24.0,30.25,ESE,123,0.0,1.0,70,0.00,,CLR,0.00,VWS V14.01,2013-03-14 09:21:00,
2013-03-14 04:26:00,32.6,23.6,30.25,ESE,123,0.0,1.0,69,0.00,,CLR,0.00,VWS V14.01,2013-03-14 09:26:00,
2013-03-14 04:30:00,32.6,23.6,30.25,ESE,123,0.0,1.0,69,0.00,,CLR,0.00,VWS V14.01,2013-03-14 09:30:00,
2013-03-14 04:31:00,32.5,23.5,30.25,ESE,123,0.0,0.0,69,0.00,,CLR,0.00,VWS V14.01,2013-03-14 09:31:00,
2013-03-14 04:36:00,32.5,23.8,30.25,ESE,123,0.0,0.0,70,0.00,,CLR,0.00,VWS V14.01,2013-03-14 09:36:00,
2013-03-14 04:41:00,32.3,24.0,30.25,ESE,123,1.0,1.0,71,0.00,,CLR,0.00,VWS V14.01,2013-03-14 09:41:00,
2013-03-14 04:47:00,32.1,23.8,30.24,ESE,123,0.0,1.0,71,0.00,,CLR,0.00,VWS V14.01,2013-03-14 09:47:00,
2013-03-14 04:52:00,32.0,23.7,30.24,ESE,123,0.0,1.0,71,0.00,,CLR,0.00,VWS V14.01,2013-03-14 09:52:00,
2013-03-14 04:57:00,31.9,23.6,30.24,ESE,123,0.0,1.0,71,0.00,,CLR,0.00,VWS V14.01,2013-03-14 09:57:00,
2013-03-14 05:00:00,31.9,23.6,30.24,ESE,123,0.0,1.0,71,0.00,,CLR,0.00,VWS V14.01,2013-03-14 10:00:00,
2013-03-14 05:02:00,31.9,23.9,30.24,ESE,123,0.0,1.0,72,0.00,,CLR,0.00,VWS V14.01,2013-03-14 10:02:00,
2013-03-14 05:07:00,31.9,23.9,30.23,ESE,123,0.0,1.0,72,0.00,,CLR,0.00,VWS V14.01,2013-03-14 10:07:00,
2013-03-14 05:12:00,31.8,23.8,30.23,ESE,123,0.0,1.0,72,0.00,,CLR,0.00,VWS V14.01,2013-03-14 10:12:00,
2013-03-14 05:17:00,31.7,24.0,30.23,ESE,123,0.0,1.0,73,0.00,,CLR,0.00,VWS V14.01,2013-03-14 10:17:00,
2013-03-14 05:22:00,31.6,24.0,30.23,ESE,123,1.0,1.0,73,0.00,,CLR,0.00,VWS V14.01,2013-03-14 10:22:00,
2013-03-14 05:27:00,31.6,24.3,30.23,ESE,123,0.0,1.0,74,0.00,,CLR,0.00,VWS V14.01,2013-03-14 10:27:00,
2013-03-14 05:30:00,31.5,24.2,30.23,ESE,123,0.0,1.0,74,0.00,,CLR,0.00,VWS V14.01,2013-03-14 10:30:00,
2013-03-14 05:32:00,31.5,24.2,30.23,ESE,123,0.0,1.0,74,0.00,,CLR,0.00,VWS V14.01,2013-03-14 10:32:00,
2013-03-14 05:37:00,31.4,24.1,30.23,ESE,123,0.0,1.0,74,0.00,,CLR,0.00,VWS V14.01,2013-03-14 10:37:00,
2013-03-14 05:42:00,31.3,24.0,30.23,ESE,123,0.0,1.0,74,0.00,,CLR,0.00,VWS V14.01,2013-03-14 10:42:00,
2013-03-14 05:47:00,31.2,24.2,30.24,ESE,123,0.0,1.0,75,0.00,,CLR,0.00,VWS V14.01,2013-03-14 10:47:00,
2013-03-14 05:52:00,31.2,24.2,30.24,ESE,123,0.0,1.0,75,0.00,,CLR,0.00,VWS V14.01,2013-03-14 10:52:00,
2013-03-14 05:57:00,31.4,24.4,30.24,ESE,123,0.0,1.0,75,0.00,,CLR,0.00,VWS V14.01,2013-03-14 10:57:00,
2013-03-14 06:00:00,31.4,24.4,30.25,ESE,123,0.0,1.0,75,0.00,,CLR,0.00,VWS V14.01,2013-03-14 11:00:00,
2013-03-14 06:02:00,31.4,24.4,30.25,ESE,123,0.0,0.0,75,0.00,,CLR,0.00,VWS V14.01,2013-03-14 11:02:00,
2013-03-14 06:07:00,31.4,24.7,30.25,ESE,123,0.0,1.0,76,0.00,,CLR,0.00,VWS V14.01,2013-03-14 11:07:00,
2013-03-14 06:13:00,31.4,24.7,30.25,ESE,123,0.0,1.0,76,0.00,,CLR,0.00,VWS V14.01,2013-03-14 11:13:00,
2013-03-14 06:18:00,31.4,24.7,30.24,ESE,123,0.0,1.0,76,0.00,,CLR,0.00,VWS V14.01,2013-03-14 11:18:00,
2013-03-14 06:23:00,31.3,24.3,30.24,SSE,153,1.0,2.0,75,0.00,,CLR,0.00,VWS V14.01,2013-03-14 11:23:00,
2013-03-14 06:28:00,31.3,24.3,30.24,SSE,151,1.0,3.0,75,0.00,,CLR,0.00,VWS V14.01,2013-03-14 11:28:00,
2013-03-14 06:30:00,31.4,24.1,30.24,SSE,153,1.0,3.0,74,0.00,,CLR,0.00,VWS V14.01,2013-03-14 11:30:00,
2013-03-14 06:33:00,31.6,24.0,30.24,SSE,153,0.0,2.0,73,0.00,,CLR,0.00,VWS V14.01,2013-03-14 11:33:00,
2013-03-14 06:38:00,32.1,23.8,30.24,SSE,163,1.0,2.0,71,0.00,,CLR,0.00,VWS V14.01,2013-03-14 11:38:00,
2013-03-14 06:43:00,32.7,24.0,30.24,South,175,2.0,2.0,70,0.00,,CLR,0.00,VWS V14.01,2013-03-14 11:43:00,
2013-03-14 06:48:00,33.1,23.7,30.24,SSE,167,0.0,3.0,68,0.00,,CLR,0.00,VWS V14.01,2013-03-14 11:48:00,
2013-03-14 06:53:00,33.4,23.6,30.24,South,183,0.0,5.0,67,0.00,,CLR,0.00,VWS V14.01,2013-03-14 11:53:00,
2013-03-14 06:59:00,33.5,23.7,30.24,South,175,0.0,5.0,67,0.00,,CLR,0.00,VWS V14.01,2013-03-14 11:59:00,
2013-03-14 07:00:00,33.5,23.4,30.24,South,175,0.0,5.0,66,0.00,,CLR,0.00,VWS V14.01,2013-03-14 12:00:00,
2013-03-14 07:04:00,33.7,23.6,30.23,South,169,2.0,5.0,66,0.00,,CLR,0.00,VWS V14.01,2013-03-14 12:04:00,
2013-03-14 07:09:00,33.8,23.3,30.23,SSE,162,0.0,5.0,65,0.00,,CLR,0.00,VWS V14.01,2013-03-14 12:09:00,
2013-03-14 07:14:00,33.9,23.0,30.24,SSE,165,0.0,5.0,64,0.00,,CLR,0.00,VWS V14.01,2013-03-14 12:14:00,
2013-03-14 07:19:00,34.0,23.1,30.23,SSE,165,0.0,5.0,64,0.00,,CLR,0.00,VWS V14.01,2013-03-14 12:19:00,
2013-03-14 07:24:00,33.9,23.8,30.23,SSE,165,0.0,5.0,66,0.00,,CLR,0.00,VWS V14.01,2013-03-14 12:24:00,
2013-03-14 07:29:00,33.7,23.2,30.23,SSE,165,1.0,5.0,65,0.00,,CLR,0.00,VWS V14.01,2013-03-14 12:29:00,
2013-03-14 07:30:00,33.6,23.1,30.23,SSE,162,1.0,5.0,65,0.00,,CLR,0.00,VWS V14.01,2013-03-14 12:30:00,
2013-03-14 07:34:00,33.5,23.0,30.23,SSE,162,1.0,1.0,65,0.00,,CLR,0.00,VWS V14.01,2013-03-14 12:34:00,
2013-03-14 07:39:00,33.4,23.3,30.23,SSE,163,1.0,2.0,66,0.00,,CLR,0.00,VWS V14.01,2013-03-14 12:39:00,
2013-03-14 07:44:00,33.5,23.0,30.23,SSE,163,1.0,2.0,65,0.00,,CLR,0.00,VWS V14.01,2013-03-14 12:44:00,
2013-03-14 07:49:00,33.6,23.1,30.22,SSE,159,1.0,2.0,65,0.00,,CLR,0.00,VWS V14.01,2013-03-14 12:49:00,
2013-03-14 07:54:00,33.8,22.9,30.23,SSE,164,0.0,2.0,64,0.00,,CLR,0.00,VWS V14.01,2013-03-14 12:54:00,
2013-03-14 07:59:00,34.1,23.2,30.23,SSE,164,0.0,2.0,64,0.00,,CLR,0.00,VWS V14.01,2013-03-14 12:59:00,
2013-03-14 08:00:00,34.1,23.2,30.23,SSE,164,0.0,2.0,64,0.00,,CLR,0.00,VWS V14.01,2013-03-14 13:00:00,
2013-03-14 08:04:00,34.3,23.4,30.23,SSE,160,0.0,2.0,64,0.00,,CLR,0.00,VWS V14.01,2013-03-14 13:04:00,
2013-03-14 08:09:00,34.5,23.2,30.23,SSE,160,0.0,2.0,63,0.00,,CLR,0.00,VWS V14.01,2013-03-14 13:09:00,
2013-03-14 08:14:00,34.7,23.4,30.23,SSE,160,0.0,2.0,63,0.00,,CLR,0.00,VWS V14.01,2013-03-14 13:14:00,
2013-03-14 08:19:00,34.9,23.6,30.24,SSE,160,0.0,2.0,63,0.00,,CLR,0.00,VWS V14.01,2013-03-14 13:19:00,
2013-03-14 08:25:00,35.2,23.9,30.24,SSE,160,0.0,2.0,63,0.00,,CLR,0.00,VWS V14.01,2013-03-14 13:25:00,
2013-03-14 08:30:00,35.4,24.1,30.24,SSE,160,1.0,2.0,63,0.00,,CLR,0.00,VWS V14.01,2013-03-14 13:30:00,
2013-03-14 08:35:00,35.7,24.0,30.24,SE,130,0.0,2.0,62,0.00,,CLR,0.00,VWS V14.01,2013-03-14 13:35:00,
2013-03-14 08:40:00,36.1,24.0,30.24,SE,134,0.0,2.0,61,0.00,,CLR,0.00,VWS V14.01,2013-03-14 13:40:00,
2013-03-14 08:45:00,36.5,24.7,30.23,SSE,151,0.0,2.0,62,0.00,,CLR,0.00,VWS V14.01,2013-03-14 13:45:00,
2013-03-14 08:50:00,37.1,24.5,30.23,SE,145,1.0,3.0,60,0.00,,CLR,0.00,VWS V14.01,2013-03-14 13:50:00,
2013-03-14 08:55:00,37.8,24.8,30.23,SSE,167,0.0,3.0,59,0.00,,CLR,0.00,VWS V14.01,2013-03-14 13:55:00,
2013-03-14 09:00:00,38.5,24.6,30.23,South,176,6.0,6.0,57,0.00,,CLR,0.00,VWS V14.01,2013-03-14 14:00:00,
2013-03-14 09:05:00,39.1,24.7,30.23,SSE,164,0.0,6.0,56,0.00,,CLR,0.00,VWS V14.01,2013-03-14 14:05:00,
2013-03-14 09:10:00,39.7,25.3,30.23,SE,146,2.0,6.0,56,0.00,,CLR,0.00,VWS V14.01,2013-03-14 14:10:00,
2013-03-14 09:15:00,40.2,24.9,30.22,SSE,161,2.0,6.0,54,0.00,,CLR,0.00,VWS V14.01,2013-03-14 14:15:00,
2013-03-14 09:20:00,40.4,25.1,30.22,SSE,159,3.0,6.0,54,0.00,,CLR,0.00,VWS V14.01,2013-03-14 14:20:00,
2013-03-14 09:25:00,40.6,24.8,30.22,SE,144,3.0,6.0,53,0.00,,CLR,0.00,VWS V14.01,2013-03-14 14:25:00,
2013-03-14 09:30:00,41.1,26.2,30.22,SSE,160,3.0,5.0,55,0.00,,CLR,0.00,VWS V14.01,2013-03-14 14:30:00,
2013-03-14 09:35:00,41.5,26.1,30.22,South,190,2.0,5.0,54,0.00,,CLR,0.00,VWS V14.01,2013-03-14 14:35:00,
2013-03-14 09:40:00,42.2,26.3,30.22,SE,142,3.0,5.0,53,0.00,,CLR,0.00,VWS V14.01,2013-03-14 14:40:00,
2013-03-14 09:45:00,42.8,26.9,30.22,ESE,119,3.0,5.0,53,0.00,,CLR,0.00,VWS V14.01,2013-03-14 14:45:00,
2013-03-14 09:50:00,43.4,27.0,30.22,SE,130,1.0,5.0,52,0.00,,CLR,0.00,VWS V14.01,2013-03-14 14:50:00,
2013-03-14 09:56:00,44.3,26.9,30.21,South,190,2.0,5.0,50,0.00,,CLR,0.00,VWS V14.01,2013-03-14 14:56:00,
2013-03-14 10:00:00,44.7,26.7,30.21,SE,140,5.0,7.0,49,0.00,,CLR,0.00,VWS V14.01,2013-03-14 15:00:00,
2013-03-14 10:01:00,44.7,26.2,30.21,South,169,4.0,5.0,48,0.00,,CLR,0.00,VWS V14.01,2013-03-14 15:01:00,
2013-03-14 10:06:00,45.1,26.6,30.21,SSE,161,3.0,6.0,48,0.00,,CLR,0.00,VWS V14.01,2013-03-14 15:06:00,
2013-03-14 10:12:00,45.7,27.1,30.20,ESE,106,1.0,6.0,48,0.00,,CLR,0.00,VWS V14.01,2013-03-14 15:12:00,
2013-03-14 10:17:00,46.4,27.3,30.20,South,169,1.0,6.0,47,0.00,,CLR,0.00,VWS V14.01,2013-03-14 15:17:00,
2013-03-14 10:22:00,47.0,27.3,30.20,South,183,1.0,6.0,46,0.00,,CLR,0.00,VWS V14.01,2013-03-14 15:22:00,
2013-03-14 10:27:00,47.7,29.0,30.19,South,177,2.0,6.0,48,0.00,,CLR,0.00,VWS V14.01,2013-03-14 15:27:00,
2013-03-14 10:30:00,48.2,27.3,30.20,South,178,3.0,7.0,44,0.00,,CLR,0.00,VWS V14.01,2013-03-14 15:30:00,
2013-03-14 10:32:00,48.3,28.0,30.19,South,169,0.0,4.0,45,0.00,,CLR,0.00,VWS V14.01,2013-03-14 15:32:00,
2013-03-14 10:37:00,48.8,27.9,30.19,SSE,159,4.0,7.0,44,0.00,,CLR,0.00,VWS V14.01,2013-03-14 15:37:00,
2013-03-14 10:42:00,49.3,28.3,30.19,South,172,3.0,10.0,44,0.00,,CLR,0.00,VWS V14.01,2013-03-14 15:42:00,
2013-03-14 10:47:00,49.9,27.7,30.18,South,169,2.0,10.0,42,0.00,,CLR,0.00,VWS V14.01,2013-03-14 15:47:00,
2013-03-14 10:52:00,50.4,27.6,30.18,South,170,3.0,11.0,41,0.00,,CLR,0.00,VWS V14.01,2013-03-14 15:52:00,
2013-03-14 10:57:00,50.6,28.4,30.18,SSE,149,5.0,11.0,42,0.00,,CLR,0.00,VWS V14.01,2013-03-14 15:57:00,
2013-03-14 11:00:00,50.8,28.5,30.18,SSE,161,3.0,11.0,42,0.00,,CLR,0.00,VWS V14.01,2013-03-14 16:00:00,
2013-03-14 11:03:00,51.2,28.9,30.18,SSW,192,7.0,7.0,42,0.00,,CLR,0.00,VWS V14.01,2013-03-14 16:03:00,
2013-03-14 11:08:00,52.2,28.6,30.17,SSW,193,4.0,8.0,40,0.00,,CLR,0.00,VWS V14.01,2013-03-14 16:08:00,
2013-03-14 11:13:00,52.9,28.6,30.17,SSW,192,4.0,8.0,39,0.00,,CLR,0.00,VWS V14.01,2013-03-14 16:13:00,
2013-03-14 11:18:00,53.5,29.8,30.16,South,169,6.0,8.0,40,0.00,,CLR,0.00,VWS V14.01,2013-03-14 16:18:00,
2013-03-14 11:23:00,54.0,30.2,30.16,SW,221,1.0,8.0,40,0.00,,CLR,0.00,VWS V14.01,2013-03-14 16:23:00,
2013-03-14 11:28:00,54.8,29.7,30.16,SSW,198,5.0,8.0,38,0.00,,CLR,0.00,VWS V14.01,2013-03-14 16:28:00,
2013-03-14 11:30:00,54.9,30.4,30.16,SSE,165,3.0,8.0,39,0.00,,CLR,0.00,VWS V14.01,2013-03-14 16:30:00,
2013-03-14 11:33:00,55.3,29.5,30.16,SSE,147,6.0,8.0,37,0.00,,CLR,0.00,VWS V14.01,2013-03-14 16:33:00,
2013-03-14 11:38:00,55.9,30.0,30.16,SE,146,4.0,8.0,37,0.00,,CLR,0.00,VWS V14.01,2013-03-14 16:38:00,
2013-03-14 11:43:00,56.5,31.2,30.15,SSW,200,3.0,9.0,38,0.00,,CLR,0.00,VWS V14.01,2013-03-14 16:43:00,
2013-03-14 11:49:00,57.4,31.4,30.15,SE,143,4.0,9.0,37,0.00,,CLR,0.00,VWS V14.01,2013-03-14 16:49:00,
2013-03-14 11:54:00,57.9,30.4,30.15,South,184,7.0,9.0,35,0.00,,CLR,0.00,VWS V14.01,2013-03-14 16:54:00,
2013-03-14 11:59:00,58.5,30.2,30.15,SW,230,7.0,9.0,34,0.00,,CLR,0.00,VWS V14.01,2013-03-14 16:59:00,
2013-03-14 12:00:00,58.7,31.1,30.15,WSW,251,2.0,10.0,35,0.00,,CLR,0.00,VWS V14.01,2013-03-14 17:00:00,
2013-03-14 12:04:00,59.7,32.0,30.15,SE,144,3.0,5.0,35,0.00,,CLR,0.00,VWS V14.01,2013-03-14 17:04:00,
2013-03-14 12:09:00,61.0,32.5,30.14,SSE,168,8.0,8.0,34,0.00,,CLR,0.00,VWS V14.01,2013-03-14 17:09:00,
2013-03-14 12:14:00,61.8,32.4,30.14,SSW,201,6.0,10.0,33,0.00,,CLR,0.00,VWS V14.01,2013-03-14 17:14:00,
2013-03-14 12:19:00,62.5,31.5,30.14,South,182,5.0,10.0,31,0.00,,CLR,0.00,VWS V14.01,2013-03-14 17:19:00,
2013-03-14 12:24:00,63.3,32.2,30.13,SSW,211,7.0,10.0,31,0.00,,CLR,0.00,VWS V14.01,2013-03-14 17:24:00,
2013-03-14 12:29:00,63.7,31.7,30.13,SSW,211,7.0,10.0,30,0.00,,CLR,0.00,VWS V14.01,2013-03-14 17:29:00,
2013-03-14 12:30:00,63.8,32.6,30.13,SSW,196,3.0,10.0,31,0.00,,CLR,0.00,VWS V14.01,2013-03-14 17:30:00,
2013-03-14 12:34:00,64.2,32.2,30.12,West,263,4.0,14.0,30,0.00,,CLR,0.00,VWS V14.01,2013-03-14 17:34:00,
2013-03-14 12:40:00,65.1,32.9,30.12,WSW,250,6.0,14.0,30,0.00,,CLR,0.00,VWS V14.01,2013-03-14 17:40:00,
2013-03-14 12:45:00,65.6,32.5,30.12,SSW,192,4.0,14.0,29,0.00,,CLR,0.00,VWS V14.01,2013-03-14 17:45:00,
2013-03-14 12:50:00,65.9,31.9,30.11,SSW,193,4.0,14.0,28,0.00,,CLR,0.00,VWS V14.01,2013-03-14 17:50:00,
2013-03-14 12:55:00,65.8,33.5,30.11,SSW,198,9.0,14.0,30,0.00,,CLR,0.00,VWS V14.01,2013-03-14 17:55:00,
2013-03-14 13:00:00,65.8,32.7,30.11,SSW,206,8.0,10.0,29,0.00,,CLR,0.00,VWS V14.01,2013-03-14 18:00:00,
2013-03-14 13:05:00,65.9,32.8,30.10,SSW,205,4.0,10.0,29,0.00,,CLR,0.00,VWS V14.01,2013-03-14 18:05:00,
2013-03-14 13:10:00,66.4,34.0,30.10,West,261,1.0,10.0,30,0.00,,CLR,0.00,VWS V14.01,2013-03-14 18:10:00,
2013-03-14 13:15:00,67.4,34.1,30.10,SW,231,4.0,15.0,29,0.00,,CLR,0.00,VWS V14.01,2013-03-14 18:15:00,
2013-03-14 13:21:00,67.8,35.3,30.09,WSW,238,4.0,15.0,30,0.00,,CLR,0.00,VWS V14.01,2013-03-14 18:21:00,
2013-03-14 13:26:00,68.2,34.8,30.09,South,184,5.0,15.0,29,0.00,,CLR,0.00,VWS V14.01,2013-03-14 18:26:00,
2013-03-14 13:30:00,68.5,35.9,30.09,SSW,206,10.0,15.0,30,0.00,,CLR,0.00,VWS V14.01,2013-03-14 18:30:00,
2013-03-14 13:31:00,68.6,34.2,30.09,SSW,193,5.0,10.0,28,0.00,,CLR,0.00,VWS V14.01,2013-03-14 18:31:00,
2013-03-14 13:36:00,68.6,34.2,30.09,WSW,253,2.0,11.0,28,0.00,,CLR,0.00,VWS V14.01,2013-03-14 18:36:00,
2013-03-14 13:41:00,68.8,34.4,30.08,WSW,242,4.0,11.0,28,0.00,,CLR,0.00,VWS V14.01,2013-03-14 18:41:00,
2013-03-14 13:46:00,69.0,34.6,30.08,West,267,4.0,11.0,28,0.00,,CLR,0.00,VWS V14.01,2013-03-14 18:46:00,
2013-03-14 13:51:00,69.0,35.5,30.08,WSW,255,2.0,13.0,29,0.00,,CLR,0.00,VWS V14.01,2013-03-14 18:51:00,
2013-03-14 13:56:00,69.5,34.1,30.08,West,273,7.0,13.0,27,0.00,,CLR,0.00,VWS V14.01,2013-03-14 18:56:00,
2013-03-14 14:00:00,69.3,34.8,30.07,SW,216,2.0,13.0,28,0.00,,CLR,0.00,VWS V14.01,2013-03-14 19:00:00,
2013-03-14 14:01:00,69.1,34.7,30.07,WSW,244,2.0,7.0,28,0.00,,CLR,0.00,VWS V14.01,2013-03-14 19:01:00,
2013-03-14 14:07:00,69.4,34.9,30.07,SW,225,8.0,16.0,28,0.00,,CLR,0.00,VWS V14.01,2013-03-14 19:07:00,
2013-03-14 14:12:00,69.9,37.1,30.06,West,263,10.0,16.0,30,0.00,,CLR,0.00,VWS V14.01,2013-03-14 19:12:00,
2013-03-14 14:17:00,70.1,35.5,30.06,WSW,245,6.0,16.0,28,0.00,,CLR,0.00,VWS V14.01,2013-03-14 19:17:00,
2013-03-14 14:22:00,70.3,36.6,30.06,WSW,244,4.0,16.0,29,0.00,,CLR,0.00,VWS V14.01,2013-03-14 19:22:00,
2013-03-14 14:27:00,70.4,35.8,30.06,WSW,239,6.0,16.0,28,0.00,,CLR,0.00,VWS V14.01,2013-03-14 19:27:00,
2013-03-14 14:30:00,70.3,35.7,30.06,West,279,5.0,16.0,28,0.00,,CLR,0.00,VWS V14.01,2013-03-14 19:30:00,
2013-03-14 14:32:00,70.2,35.6,30.05,SSW,209,2.0,10.0,28,0.00,,CLR,0.00,VWS V14.01,2013-03-14 19:32:00,
2013-03-14 14:37:00,70.4,36.7,30.05,SSW,208,2.0,10.0,29,0.00,,CLR,0.00,VWS V14.01,2013-03-14 19:37:00,
2013-03-14 14:42:00,70.6,37.7,30.05,WSW,240,7.0,11.0,30,0.00,,CLR,0.00,VWS V14.01,2013-03-14 19:42:00,
2013-03-14 14:48:00,70.7,36.0,30.04,SW,225,5.0,12.0,28,0.00,,CLR,0.00,VWS V14.01,2013-03-14 19:48:00,
2013-03-14 14:53:00,71.0,37.2,30.04,West,269,7.0,12.0,29,0.00,,CLR,0.00,VWS V14.01,2013-03-14 19:53:00,
2013-03-14 14:58:00,71.1,36.4,30.04,West,278,6.0,12.0,28,0.00,,CLR,0.00,VWS V14.01,2013-03-14 19:58:00,
2013-03-14 15:00:00,71.2,37.3,30.04,West,274,4.0,12.0,29,0.00,,CLR,0.00,VWS V14.01,2013-03-14 20:00:00,
2013-03-14 15:03:00,71.3,35.6,30.03,SW,234,1.0,11.0,27,0.00,,CLR,0.00,VWS V14.01,2013-03-14 20:03:00,
2013-03-14 15:08:00,71.7,36.9,30.03,SW,215,5.0,11.0,28,0.00,,CLR,0.00,VWS V14.01,2013-03-14 20:08:00,
2013-03-14 15:13:00,71.8,37.0,30.03,SW,216,10.0,11.0,28,0.00,,CLR,0.00,VWS V14.01,2013-03-14 20:13:00,
2013-03-14 15:18:00,72.0,36.2,30.03,WSW,258,5.0,14.0,27,0.00,,CLR,0.00,VWS V14.01,2013-03-14 20:18:00,
2013-03-14 15:23:00,71.7,36.9,30.02,WSW,237,2.0,14.0,28,0.00,,CLR,0.00,VWS V14.01,2013-03-14 20:23:00,
2013-03-14 15:28:00,72.1,37.2,30.02,SW,231,5.0,14.0,28,0.00,,CLR,0.00,VWS V14.01,2013-03-14 20:28:00,
2013-03-14 15:30:00,72.2,37.3,30.02,SW,214,8.0,14.0,28,0.00,,CLR,0.00,VWS V14.01,2013-03-14 20:30:00,
2013-03-14 15:33:00,72.5,37.6,30.02,West,266,7.0,11.0,28,0.00,,CLR,0.00,VWS V14.01,2013-03-14 20:33:00,
2013-03-14 15:38:00,72.6,37.7,30.01,SW,223,5.0,11.0,28,0.00,,CLR,0.00,VWS V14.01,2013-03-14 20:38:00,
2013-03-14 15:43:00,72.5,36.7,30.01,SW,231,6.0,11.0,27,0.00,,CLR,0.00,VWS V14.01,2013-03-14 20:43:00,
2013-03-14 15:49:00,72.1,37.2,30.01,West,279,6.0,15.0,28,0.00,,CLR,0.00,VWS V14.01,2013-03-14 20:49:00,
2013-03-14 15:54:00,71.4,36.6,30.01,West,264,3.0,15.0,28,0.00,,CLR,0.00,VWS V14.01,2013-03-14 20:54:00,
2013-03-14 15:59:00,71.5,36.7,30.01,SW,223,6.0,15.0,28,0.00,,CLR,0.00,VWS V14.01,2013-03-14 20:59:00,
2013-03-14 16:00:00,71.6,37.7,30.01,SW,216,3.0,15.0,29,0.00,,CLR,0.00,VWS V14.01,2013-03-14 21:00:00,
2013-03-14 16:04:00,71.8,37.0,30.01,West,281,4.0,9.0,28,0.00,,CLR,0.00,VWS V14.01,2013-03-14 21:04:00,
2013-03-14 16:09:00,72.1,37.2,30.01,West,279,2.0,17.0,28,0.00,,CLR,0.00,VWS V14.01,2013-03-14 21:09:00,
2013-03-14 16:14:00,72.2,38.2,30.01,West,265,5.0,17.0,29,0.00,,CLR,0.00,VWS V14.01,2013-03-14 21:14:00,
2013-03-14 16:19:00,72.3,37.4,30.01,West,259,3.0,17.0,28,0.00,,CLR,0.00,VWS V14.01,2013-03-14 21:19:00,
2013-03-14 16:24:00,72.2,36.4,30.01,SW,221,5.0,17.0,27,0.00,,CLR,0.00,VWS V14.01,2013-03-14 21:24:00,
2013-03-14 16:29:00,71.9,37.1,30.01,WSW,248,2.0,17.0,28,0.00,,CLR,0.00,VWS V14.01,2013-03-14 21:29:00,
2013-03-14 16:30:00,71.9,37.1,30.01,WSW,249,5.0,17.0,28,0.00,,CLR,0.00,VWS V14.01,2013-03-14 21:30:00,
2013-03-14 16:35:00,71.7,36.0,30.01,SW,225,3.0,11.0,27,0.00,,CLR,0.00,VWS V14.01,2013-03-14 21:35:00,
2013-03-14 16:40:00,71.8,37.9,30.01,SSW,208,7.0,11.0,29,0.00,,CLR,0.00,VWS V14.01,2013-03-14 21:40:00,
2013-03-14 16:45:00,71.8,37.0,30.01,SW,215,2.0,13.0,28,0.00,,CLR,0.00,VWS V14.01,2013-03-14 21:45:00,
2013-03-14 16:50:00,71.5,36.7,30.01,WSW,245,6.0,15.0,28,0.00,,CLR,0.00,VWS V14.01,2013-03-14 21:50:00,
2013-03-14 16:55:00,71.3,37.4,30.01,SSW,199,3.0,15.0,29,0.00,,CLR,0.00,VWS V14.01,2013-03-14 21:55:00,
2013-03-14 17:00:00,71.2,37.3,30.00,SW,231,14.0,14.0,29,0.00,,CLR,0.00,VWS V14.01,2013-03-14 22:00:00,
2013-03-14 17:05:00,70.8,37.0,30.00,WSW,246,4.0,14.0,29,0.00,,CLR,0.00,VWS V14.01,2013-03-14 22:05:00,
2013-03-14 17:10:00,70.7,36.9,30.00,WSW,240,4.0,14.0,29,0.00,,CLR,0.00,VWS V14.01,2013-03-14 22:10:00,
2013-03-14 17:16:00,70.3,37.4,30.00,SSW,213,6.0,16.0,30,0.00,,CLR,0.00,VWS V14.01,2013-03-14 22:16:00,
2013-03-14 17:21:00,70.1,36.4,30.00,SW,221,3.0,16.0,29,0.00,,CLR,0.00,VWS V14.01,2013-03-14 22:21:00,
2013-03-14 17:26:00,69.8,37.0,30.00,WSW,254,13.0,16.0,30,0.00,,CLR,0.00,VWS V14.01,2013-03-14 22:26:00,
2013-03-14 17:30:00,69.7,36.9,30.00,SW,220,5.0,16.0,30,0.00,,CLR,0.00,VWS V14.01,2013-03-14 22:30:00,
2013-03-14 17:31:00,69.7,36.9,30.00,SW,225,2.0,6.0,30,0.00,,CLR,0.00,VWS V14.01,2013-03-14 22:31:00,
2013-03-14 17:36:00,69.6,36.8,30.00,SW,235,1.0,8.0,30,0.00,,CLR,0.00,VWS V14.01,2013-03-14 22:36:00,
2013-03-14 17:41:00,69.5,36.7,30.00,West,273,3.0,13.0,30,0.00,,CLR,0.00,VWS V14.01,2013-03-14 22:41:00,
2013-03-14 17:46:00,69.2,36.5,30.00,West,261,5.0,13.0,30,0.00,,CLR,0.00,VWS V14.01,2013-03-14 22:46:00,
2013-03-14 17:51:00,68.9,37.0,30.00,West,267,7.0,13.0,31,0.00,,CLR,0.00,VWS V14.01,2013-03-14 22:51:00,
2013-03-14 17:56:00,68.6,36.0,30.00,WSW,242,6.0,18.0,30,0.00,,CLR,0.00,VWS V14.01,2013-03-14 22:56:00,
2013-03-14 18:00:00,68.3,36.5,30.00,SW,217,9.0,18.0,31,0.00,,CLR,0.00,VWS V14.01,2013-03-14 23:00:00,
2013-03-14 18:01:00,68.2,36.4,30.00,WSW,240,3.0,9.0,31,0.00,,CLR,0.00,VWS V14.01,2013-03-14 23:01:00,
2013-03-14 18:06:00,67.9,36.2,30.00,West,267,3.0,10.0,31,0.00,,CLR,0.00,VWS V14.01,2013-03-14 23:06:00,
2013-03-14 18:11:00,67.7,36.0,30.00,SSW,208,6.0,12.0,31,0.00,,CLR,0.00,VWS V14.01,2013-03-14 23:11:00,
2013-03-14 18:17:00,67.6,36.7,30.00,SSW,203,3.0,12.0,32,0.00,,CLR,0.00,VWS V14.01,2013-03-14 23:17:00,
2013-03-14 18:22:00,67.4,36.5,30.00,SW,223,4.0,12.0,32,0.00,,CLR,0.00,VWS V14.01,2013-03-14 23:22:00,
2013-03-14 18:27:00,67.1,37.1,30.00,West,259,6.0,12.0,33,0.00,,CLR,0.00,VWS V14.01,2013-03-14 23:27:00,
2013-03-14 18:30:00,67.0,37.0,30.00,SW,232,1.0,12.0,33,0.00,,CLR,0.00,VWS V14.01,2013-03-14 23:30:00,
2013-03-14 18:32:00,66.9,36.9,30.00,WSW,243,5.0,8.0,33,0.00,,CLR,0.00,VWS V14.01,2013-03-14 23:32:00,
2013-03-14 18:37:00,66.7,36.7,30.00,WSW,238,2.0,8.0,33,0.00,,CLR,0.00,VWS V14.01,2013-03-14 23:37:00,
2013-03-14 18:42:00,66.5,37.3,30.00,West,273,2.0,8.0,34,0.00,,,0.00,VWS V14.01,2013-03-14 23:42:00,
2013-03-14 18:47:00,66.1,36.9,29.99,SW,222,4.0,8.0,34,0.00,,,0.00,VWS V14.01,2013-03-14 23:47:00,
2013-03-14 18:53:00,65.8,37.4,29.99,WSW,255,1.0,8.0,35,0.00,,,0.00,VWS V14.01,2013-03-14 23:53:00,
2013-03-14 18:58:00,65.6,37.2,29.99,SSW,200,4.0,8.0,35,0.00,,,0.00,VWS V14.01,2013-03-14 23:58:00,
2013-03-14 19:00:00,65.4,37.1,29.99,SW,217,0.0,8.0,35,0.00,,CLR,0.00,VWS V14.01,2013-03-15 00:00:00,
2013-03-14 19:03:00,65.2,37.6,29.99,SW,233,0.0,1.0,36,0.00,,,0.00,VWS V14.01,2013-03-15 00:03:00,
2013-03-14 19:08:00,64.8,37.2,29.99,SW,232,0.0,1.0,36,0.00,,,0.00,VWS V14.01,2013-03-15 00:08:00,
2013-03-14 19:13:00,64.3,37.5,29.99,SSW,197,0.0,3.0,37,0.00,,,0.00,VWS V14.01,2013-03-15 00:13:00,
2013-03-14 19:18:00,63.7,37.0,29.99,SSW,208,4.0,4.0,37,0.00,,,0.00,VWS V14.01,2013-03-15 00:18:00,
2013-03-14 19:23:00,63.2,36.5,29.99,SW,215,0.0,7.0,37,0.00,,,0.00,VWS V14.01,2013-03-15 00:23:00,
2013-03-14 19:28:00,63.1,37.1,29.99,SW,226,1.0,7.0,38,0.00,,,0.00,VWS V14.01,2013-03-15 00:28:00,
2013-03-14 19:30:00,63.1,37.1,29.99,WSW,248,0.0,7.0,38,0.00,,CLR,0.00,VWS V14.01,2013-03-15 00:30:00,
2013-03-14 19:33:00,62.9,36.2,30.00,SSW,201,1.0,4.0,37,0.00,,,0.00,VWS V14.01,2013-03-15 00:33:00,
2013-03-14 19:38:00,62.7,37.4,30.00,WSW,251,0.0,4.0,39,0.00,,,0.00,VWS V14.01,2013-03-15 00:38:00,
2013-03-14 19:44:00,62.3,37.7,30.00,SW,223,1.0,4.0,40,0.00,,,0.00,VWS V14.01,2013-03-15 00:44:00,
2013-03-14 19:49:00,61.7,39.0,30.00,SW,232,1.0,4.0,43,0.00,,,0.00,VWS V14.01,2013-03-15 00:49:00,
2013-03-14 19:54:00,61.2,38.0,30.00,SSW,207,0.0,4.0,42,0.00,,,0.00,VWS V14.01,2013-03-15 00:54:00,
2013-03-14 19:59:00,60.8,37.0,30.00,SW,225,1.0,5.0,41,0.00,,,0.00,VWS V14.01,2013-03-15 00:59:00,
2013-03-14 20:00:00,60.7,37.5,30.00,WSW,243,2.0,5.0,42,0.00,,CLR,0.00,VWS V14.01,2013-03-15 01:00:00,
2013-03-14 20:04:00,60.6,37.4,30.00,SW,219,2.0,3.0,42,0.00,,,0.00,VWS V14.01,2013-03-15 01:04:00,
2013-03-14 20:09:00,60.5,36.7,30.00,SSW,208,3.0,6.0,41,0.00,,,0.00,VWS V14.01,2013-03-15 01:09:00,
2013-03-14 20:14:00,60.4,37.2,30.00,WSW,238,3.0,6.0,42,0.00,,,0.00,VWS V14.01,2013-03-15 01:14:00,
2013-03-14 20:19:00,60.3,37.1,29.99,SW,217,1.0,6.0,42,0.00,,,0.00,VWS V14.01,2013-03-15 01:19:00,
2013-03-14 20:24:00,60.2,38.2,29.99,SW,220,0.0,6.0,44,0.00,,,0.00,VWS V14.01,2013-03-15 01:24:00,
2013-03-14 20:29:00,60.0,37.5,29.99,SW,217,0.0,6.0,43,0.00,,,0.00,VWS V14.01,2013-03-15 01:29:00,
2013-03-14 20:30:00,60.0,37.5,29.99,SSW,211,3.0,6.0,43,0.00,,CLR,0.00,VWS V14.01,2013-03-15 01:30:00,
2013-03-14 20:35:00,59.9,37.4,29.99,SSW,199,2.0,5.0,43,0.00,,,0.00,VWS V14.01,2013-03-15 01:35:00,
2013-03-14 20:40:00,60.1,37.5,29.99,WSW,248,7.0,7.0,43,0.00,,,0.00,VWS V14.01,2013-03-15 01:40:00,
2013-03-14 20:45:00,60.4,37.2,29.99,SW,229,1.0,7.0,42,0.00,,,0.00,VWS V14.01,2013-03-15 01:45:00,
2013-03-14 20:50:00,60.3,37.7,29.99,SSW,207,2.0,7.0,43,0.00,,,0.00,VWS V14.01,2013-03-15 01:50:00,
2013-03-14 20:55:00,60.5,37.9,29.99,SSW,211,0.0,7.0,43,0.00,,,0.00,VWS V14.01,2013-03-15 01:55:00,
2013-03-14 21:00:00,60.3,37.7,29.99,SSW,199,3.0,6.0,43,0.00,,,0.00,VWS V14.01,2013-03-15 02:00:00,
2013-03-14 21:06:00,60.2,38.2,29.99,SW,220,4.0,6.0,44,0.00,,,0.00,VWS V14.01,2013-03-15 02:06:00,
2013-03-14 21:11:00,60.0,38.0,29.99,SSW,202,0.0,6.0,44,0.00,,,0.00,VWS V14.01,2013-03-15 02:11:00,
2013-03-14 21:16:00,59.8,37.9,30.00,SSW,211,1.0,6.0,44,0.00,,,0.00,VWS V14.01,2013-03-15 02:16:00,
2013-03-14 21:21:00,59.6,37.7,30.00,SSW,202,2.0,6.0,44,0.00,,,0.00,VWS V14.01,2013-03-15 02:21:00,
2013-03-14 21:26:00,60.0,38.0,30.00,SSW,207,1.0,7.0,44,0.00,,,0.00,VWS V14.01,2013-03-15 02:26:00,
2013-03-14 21:30:00,60.3,37.7,30.00,SW,224,0.0,7.0,43,0.00,,CLR,0.00,VWS V14.01,2013-03-15 02:30:00,
2013-03-14 21:31:00,60.4,38.4,30.00,SSW,213,1.0,5.0,44,0.00,,,0.00,VWS V14.01,2013-03-15 02:31:00,
2013-03-14 21:37:00,61.0,37.8,30.00,SW,228,4.0,7.0,42,0.00,,,0.00,VWS V14.01,2013-03-15 02:37:00,
2013-03-14 21:42:00,61.5,37.6,30.00,SW,221,3.0,8.0,41,0.00,,,0.00,VWS V14.01,2013-03-15 02:42:00,
2013-03-14 21:47:00,61.5,38.2,30.00,SW,229,3.0,8.0,42,0.00,,,0.00,VWS V14.01,2013-03-15 02:47:00,
2013-03-14 21:52:00,61.4,38.1,30.00,SW,225,2.0,8.0,42,0.00,,,0.00,VWS V14.01,2013-03-15 02:52:00,
2013-03-14 21:57:00,61.0,37.8,30.00,SW,228,4.0,8.0,42,0.00,,,0.00,VWS V14.01,2013-03-15 02:57:00,
2013-03-14 22:00:00,60.8,38.2,30.00,WSW,246,2.0,8.0,43,0.00,,CLR,0.00,VWS V14.01,2013-03-15 03:00:00,
2013-03-14 22:02:00,60.7,38.1,30.00,WSW,252,4.0,4.0,43,0.00,,,0.00,VWS V14.01,2013-03-15 03:02:00,
2013-03-14 22:07:00,60.6,38.0,30.01,SW,233,1.0,5.0,43,0.00,,,0.00,VWS V14.01,2013-03-15 03:07:00,
2013-03-14 22:13:00,60.2,38.2,30.00,SSW,207,4.0,6.0,44,0.00,,,0.00,VWS V14.01,2013-03-15 03:13:00,
2013-03-14 22:18:00,59.9,38.0,30.00,SSW,208,3.0,6.0,44,0.00,,,0.00,VWS V14.01,2013-03-15 03:18:00,
2013-03-14 22:23:00,59.6,38.2,30.00,SW,215,2.0,6.0,45,0.00,,,0.00,VWS V14.01,2013-03-15 03:23:00,
2013-03-14 22:28:00,59.7,38.3,30.00,SW,215,2.0,8.0,45,0.00,,,0.00,VWS V14.01,2013-03-15 03:28:00,
2013-03-14 22:30:00,59.7,38.3,30.00,WSW,254,4.0,8.0,45,0.00,,CLR,0.00,VWS V14.01,2013-03-15 03:30:00,
2013-03-14 22:33:00,59.7,38.3,30.00,SW,231,2.0,7.0,45,0.00,,,0.00,VWS V14.01,2013-03-15 03:33:00,
2013-03-14 22:38:00,59.8,39.0,30.01,WSW,238,5.0,7.0,46,0.00,,,0.00,VWS V14.01,2013-03-15 03:38:00,
2013-03-14 22:43:00,59.6,38.8,30.00,SW,232,5.0,7.0,46,0.00,,,0.00,VWS V14.01,2013-03-15 03:43:00,
2013-03-14 22:48:00,59.5,38.7,30.00,SW,216,4.0,7.0,46,0.00,,,0.00,VWS V14.01,2013-03-15 03:48:00,
2013-03-14 22:53:00,59.4,39.2,30.00,WSW,245,2.0,9.0,47,0.00,,,0.00,VWS V14.01,2013-03-15 03:53:00,
2013-03-14 22:58:00,59.3,39.1,30.00,SW,221,2.0,9.0,47,0.00,,,0.00,VWS V14.01,2013-03-15 03:58:00,
2013-03-14 23:00:00,59.3,39.1,30.00,SW,214,5.0,9.0,47,0.00,,,0.00,VWS V14.01,2013-03-15 04:00:00,
2013-03-14 23:04:00,59.1,38.9,30.00,SW,221,4.0,8.0,47,0.00,,,0.00,VWS V14.01,2013-03-15 04:04:00,
2013-03-14 23:09:00,59.0,39.4,30.00,SSW,196,5.0,9.0,48,0.00,,,0.00,VWS V14.01,2013-03-15 04:09:00,
2013-03-14 23:14:00,59.1,39.5,30.00,SW,221,2.0,9.0,48,0.00,,,0.00,VWS V14.01,2013-03-15 04:14:00,
2013-03-14 23:19:00,59.2,39.5,30.00,WSW,238,3.0,9.0,48,0.00,,,0.00,VWS V14.01,2013-03-15 04:19:00,
2013-03-14 23:24:00,59.1,40.0,30.00,SSW,208,5.0,9.0,49,0.00,,,0.00,VWS V14.01,2013-03-15 04:24:00,
2013-03-14 23:29:00,59.1,40.0,30.00,SW,234,4.0,9.0,49,0.00,,,0.00,VWS V14.01,2013-03-15 04:29:00,
2013-03-14 23:30:00,59.1,40.0,30.00,SW,215,2.0,9.0,49,0.00,,CLR,0.00,VWS V14.01,2013-03-15 04:30:00,
2013-03-14 23:34:00,59.1,40.0,30.00,WSW,242,4.0,8.0,49,0.00,,,0.00,VWS V14.01,2013-03-15 04:34:00,
2013-03-14 23:39:00,59.2,40.6,30.00,SSW,210,1.0,9.0,50,0.00,,,0.00,VWS V14.01,2013-03-15 04:39:00,
2013-03-14 23:44:00,59.2,40.1,30.00,SSW,201,4.0,9.0,49,0.00,,,0.00,VWS V14.01,2013-03-15 04:44:00,
2013-03-14 23:49:00,59.2,40.6,29.99,SSW,203,3.0,9.0,50,0.00,,,0.00,VWS V14.01,2013-03-15 04:49:00,
2013-03-14 23:54:00,59.2,40.6,29.99,WSW,246,4.0,10.0,50,0.00,,,0.00,VWS V14.01,2013-03-15 04:54:00,